sensor_id;sensor_type;location;lat;lon;timestamp;P1;durP1;ratioP1;P2;durP2;ratioP2
13347;SDS011;6743;49.934;9.138;2023-11-22T00:01:37;1.43;;;1.27;;
13347;SDS011;6743;49.934;9.138;2023-11-22T00:04:03;1.23;;;1.17;;
13347;SDS011;6743;49.934;9.138;2023-11-22T00:06:30;1.40;;;1.23;;
13347;SDS011;6743;49.934;9.138;2023-11-22T00:08:57;1.07;;;1.07;;
13347;SDS011;6743;49.934;9.138;2023-11-22T00:11:23;1.63;;;1.53;;
13347;SDS011;6743;49.934;9.138;2023-11-22T00:13:49;1.17;;;1.13;;
13347;SDS011;6743;49.934;9.138;2023-11-22T00:16:24;1.50;;;1.43;;
13347;SDS011;6743;49.934;9.138;2023-11-22T00:18:50;1.57;;;1.27;;
13347;SDS011;6743;49.934;9.138;2023-11-22T00:21:16;0.97;;;0.97;;
13347;SDS011;6743;49.934;9.138;2023-11-22T00:23:42;1.67;;;1.27;;
13347;SDS011;6743;49.934;9.138;2023-11-22T00:26:09;1.23;;;1.07;;
13347;SDS011;6743;49.934;9.138;2023-11-22T00:28:36;1.00;;;1.00;;
13347;SDS011;6743;49.934;9.138;2023-11-22T00:31:02;1.17;;;1.07;;
13347;SDS011;6743;49.934;9.138;2023-11-22T00:33:28;1.67;;;1.57;;
13347;SDS011;6743;49.934;9.138;2023-11-22T00:35:54;0.73;;;0.73;;
13347;SDS011;6743;49.934;9.138;2023-11-22T00:38:21;1.77;;;1.10;;
13347;SDS011;6743;49.934;9.138;2023-11-22T00:40:47;1.70;;;1.10;;
13347;SDS011;6743;49.934;9.138;2023-11-22T00:43:15;1.30;;;1.20;;
13347;SDS011;6743;49.934;9.138;2023-11-22T00:45:42;0.77;;;0.77;;
13347;SDS011;6743;49.934;9.138;2023-11-22T00:48:08;1.20;;;0.90;;
13347;SDS011;6743;49.934;9.138;2023-11-22T00:50:34;1.07;;;0.97;;
13347;SDS011;6743;49.934;9.138;2023-11-22T00:53:00;1.47;;;1.20;;
13347;SDS011;6743;49.934;9.138;2023-11-22T00:55:26;3.17;;;1.63;;
13347;SDS011;6743;49.934;9.138;2023-11-22T00:57:52;0.70;;;0.70;;
13347;SDS011;6743;49.934;9.138;2023-11-22T01:00:19;0.80;;;0.80;;
13347;SDS011;6743;49.934;9.138;2023-11-22T01:02:45;0.83;;;0.73;;
13347;SDS011;6743;49.934;9.138;2023-11-22T01:05:11;1.53;;;1.00;;
13347;SDS011;6743;49.934;9.138;2023-11-22T01:07:37;1.40;;;0.90;;
13347;SDS011;6743;49.934;9.138;2023-11-22T01:10:04;0.90;;;0.90;;
13347;SDS011;6743;49.934;9.138;2023-11-22T01:12:31;0.67;;;0.67;;
13347;SDS011;6743;49.934;9.138;2023-11-22T01:14:57;0.73;;;0.60;;
13347;SDS011;6743;49.934;9.138;2023-11-22T01:17:23;0.53;;;0.53;;
13347;SDS011;6743;49.934;9.138;2023-11-22T01:19:49;0.90;;;0.90;;
13347;SDS011;6743;49.934;9.138;2023-11-22T01:22:16;0.60;;;0.60;;
13347;SDS011;6743;49.934;9.138;2023-11-22T01:24:42;1.30;;;0.50;;
13347;SDS011;6743;49.934;9.138;2023-11-22T01:27:08;0.60;;;0.60;;
13347;SDS011;6743;49.934;9.138;2023-11-22T01:29:34;1.00;;;1.00;;
13347;SDS011;6743;49.934;9.138;2023-11-22T01:32:01;1.23;;;1.13;;
13347;SDS011;6743;49.934;9.138;2023-11-22T01:34:28;0.67;;;0.63;;
13347;SDS011;6743;49.934;9.138;2023-11-22T01:36:54;0.77;;;0.77;;
13347;SDS011;6743;49.934;9.138;2023-11-22T01:39:20;0.83;;;0.83;;
13347;SDS011;6743;49.934;9.138;2023-11-22T01:41:46;0.43;;;0.43;;
13347;SDS011;6743;49.934;9.138;2023-11-22T01:44:14;0.40;;;0.40;;
13347;SDS011;6743;49.934;9.138;2023-11-22T01:46:40;0.80;;;0.80;;
13347;SDS011;6743;49.934;9.138;2023-11-22T01:49:08;0.43;;;0.40;;
13347;SDS011;6743;49.934;9.138;2023-11-22T01:51:36;0.77;;;0.77;;
13347;SDS011;6743;49.934;9.138;2023-11-22T01:54:03;0.87;;;0.87;;
13347;SDS011;6743;49.934;9.138;2023-11-22T01:56:32;1.70;;;1.10;;
13347;SDS011;6743;49.934;9.138;2023-11-22T01:58:59;0.53;;;0.53;;
13347;SDS011;6743;49.934;9.138;2023-11-22T02:01:25;0.83;;;0.70;;
13347;SDS011;6743;49.934;9.138;2023-11-22T02:03:51;1.90;;;0.93;;
13347;SDS011;6743;49.934;9.138;2023-11-22T02:06:18;1.70;;;1.20;;
13347;SDS011;6743;49.934;9.138;2023-11-22T02:08:47;0.57;;;0.57;;
13347;SDS011;6743;49.934;9.138;2023-11-22T02:11:16;3.43;;;1.37;;
13347;SDS011;6743;49.934;9.138;2023-11-22T02:13:46;1.27;;;0.77;;
13347;SDS011;6743;49.934;9.138;2023-11-22T02:16:13;1.70;;;1.27;;
13347;SDS011;6743;49.934;9.138;2023-11-22T02:18:39;1.03;;;1.03;;
13347;SDS011;6743;49.934;9.138;2023-11-22T02:21:07;1.70;;;1.17;;
13347;SDS011;6743;49.934;9.138;2023-11-22T02:23:33;1.30;;;1.07;;
13347;SDS011;6743;49.934;9.138;2023-11-22T02:25:59;1.50;;;1.30;;
13347;SDS011;6743;49.934;9.138;2023-11-22T02:28:26;0.97;;;0.97;;
13347;SDS011;6743;49.934;9.138;2023-11-22T02:30:52;0.87;;;0.87;;
13347;SDS011;6743;49.934;9.138;2023-11-22T02:33:19;0.83;;;0.80;;
13347;SDS011;6743;49.934;9.138;2023-11-22T02:35:45;1.00;;;1.00;;
13347;SDS011;6743;49.934;9.138;2023-11-22T02:38:11;1.43;;;0.70;;
13347;SDS011;6743;49.934;9.138;2023-11-22T02:40:38;2.17;;;0.90;;
13347;SDS011;6743;49.934;9.138;2023-11-22T02:43:04;1.23;;;0.87;;
13347;SDS011;6743;49.934;9.138;2023-11-22T02:45:34;0.80;;;0.80;;
13347;SDS011;6743;49.934;9.138;2023-11-22T02:48:00;0.50;;;0.50;;
13347;SDS011;6743;49.934;9.138;2023-11-22T02:50:28;0.60;;;0.60;;
13347;SDS011;6743;49.934;9.138;2023-11-22T02:52:54;0.83;;;0.83;;
13347;SDS011;6743;49.934;9.138;2023-11-22T02:55:20;2.00;;;1.00;;
13347;SDS011;6743;49.934;9.138;2023-11-22T02:57:47;0.77;;;0.57;;
13347;SDS011;6743;49.934;9.138;2023-11-22T03:00:13;1.47;;;0.70;;
13347;SDS011;6743;49.934;9.138;2023-11-22T03:02:40;0.57;;;0.53;;
13347;SDS011;6743;49.934;9.138;2023-11-22T03:05:07;0.80;;;0.80;;
13347;SDS011;6743;49.934;9.138;2023-11-22T03:07:33;0.30;;;0.30;;
13347;SDS011;6743;49.934;9.138;2023-11-22T03:09:59;0.53;;;0.53;;
13347;SDS011;6743;49.934;9.138;2023-11-22T03:12:26;1.13;;;1.03;;
13347;SDS011;6743;49.934;9.138;2023-11-22T03:14:53;0.90;;;0.90;;
13347;SDS011;6743;49.934;9.138;2023-11-22T03:17:23;0.80;;;0.80;;
13347;SDS011;6743;49.934;9.138;2023-11-22T03:19:49;1.10;;;1.10;;
13347;SDS011;6743;49.934;9.138;2023-11-22T03:22:15;0.70;;;0.70;;
13347;SDS011;6743;49.934;9.138;2023-11-22T03:24:41;0.77;;;0.77;;
13347;SDS011;6743;49.934;9.138;2023-11-22T03:27:07;0.93;;;0.93;;
13347;SDS011;6743;49.934;9.138;2023-11-22T03:29:35;1.73;;;0.80;;
13347;SDS011;6743;49.934;9.138;2023-11-22T03:32:04;1.30;;;1.00;;
13347;SDS011;6743;49.934;9.138;2023-11-22T03:34:30;0.57;;;0.57;;
13347;SDS011;6743;49.934;9.138;2023-11-22T03:36:56;0.57;;;0.57;;
13347;SDS011;6743;49.934;9.138;2023-11-22T03:39:23;1.10;;;1.00;;
13347;SDS011;6743;49.934;9.138;2023-11-22T03:41:50;0.90;;;0.90;;
13347;SDS011;6743;49.934;9.138;2023-11-22T03:44:16;0.90;;;0.90;;
13347;SDS011;6743;49.934;9.138;2023-11-22T03:46:42;0.90;;;0.90;;
13347;SDS011;6743;49.934;9.138;2023-11-22T03:49:09;1.00;;;1.00;;
13347;SDS011;6743;49.934;9.138;2023-11-22T03:51:35;1.23;;;1.13;;
13347;SDS011;6743;49.934;9.138;2023-11-22T03:54:01;0.83;;;0.83;;
13347;SDS011;6743;49.934;9.138;2023-11-22T03:56:28;0.60;;;0.60;;
13347;SDS011;6743;49.934;9.138;2023-11-22T03:58:54;1.30;;;0.90;;
13347;SDS011;6743;49.934;9.138;2023-11-22T04:01:20;0.70;;;0.70;;
13347;SDS011;6743;49.934;9.138;2023-11-22T04:03:46;0.47;;;0.40;;
13347;SDS011;6743;49.934;9.138;2023-11-22T04:06:14;0.93;;;0.87;;
13347;SDS011;6743;49.934;9.138;2023-11-22T04:08:40;0.67;;;0.67;;
13347;SDS011;6743;49.934;9.138;2023-11-22T04:11:08;0.50;;;0.50;;
13347;SDS011;6743;49.934;9.138;2023-11-22T04:13:34;0.57;;;0.57;;
13347;SDS011;6743;49.934;9.138;2023-11-22T04:16:00;1.47;;;0.73;;
13347;SDS011;6743;49.934;9.138;2023-11-22T04:18:26;0.73;;;0.73;;
13347;SDS011;6743;49.934;9.138;2023-11-22T04:20:52;0.60;;;0.60;;
13347;SDS011;6743;49.934;9.138;2023-11-22T04:23:19;1.13;;;0.73;;
13347;SDS011;6743;49.934;9.138;2023-11-22T04:25:46;0.97;;;0.97;;
13347;SDS011;6743;49.934;9.138;2023-11-22T04:28:14;0.60;;;0.60;;
13347;SDS011;6743;49.934;9.138;2023-11-22T04:30:40;0.47;;;0.47;;
13347;SDS011;6743;49.934;9.138;2023-11-22T04:33:06;1.93;;;1.27;;
13347;SDS011;6743;49.934;9.138;2023-11-22T04:35:32;1.10;;;0.87;;
13347;SDS011;6743;49.934;9.138;2023-11-22T04:38:02;1.27;;;1.17;;
13347;SDS011;6743;49.934;9.138;2023-11-22T04:40:29;0.67;;;0.67;;
13347;SDS011;6743;49.934;9.138;2023-11-22T04:42:55;0.70;;;0.70;;
13347;SDS011;6743;49.934;9.138;2023-11-22T04:45:21;1.03;;;0.73;;
13347;SDS011;6743;49.934;9.138;2023-11-22T04:47:47;0.90;;;0.90;;
13347;SDS011;6743;49.934;9.138;2023-11-22T04:50:13;0.50;;;0.50;;
13347;SDS011;6743;49.934;9.138;2023-11-22T04:52:39;1.23;;;1.13;;
13347;SDS011;6743;49.934;9.138;2023-11-22T04:55:05;0.90;;;0.90;;
13347;SDS011;6743;49.934;9.138;2023-11-22T04:57:33;1.97;;;0.93;;
13347;SDS011;6743;49.934;9.138;2023-11-22T04:59:59;0.60;;;0.60;;
13347;SDS011;6743;49.934;9.138;2023-11-22T05:02:25;0.87;;;0.87;;
13347;SDS011;6743;49.934;9.138;2023-11-22T05:04:52;1.20;;;1.13;;
13347;SDS011;6743;49.934;9.138;2023-11-22T05:07:18;1.10;;;1.10;;
13347;SDS011;6743;49.934;9.138;2023-11-22T05:09:44;0.70;;;0.70;;
13347;SDS011;6743;49.934;9.138;2023-11-22T05:12:10;0.80;;;0.80;;
13347;SDS011;6743;49.934;9.138;2023-11-22T05:14:37;1.53;;;1.20;;
13347;SDS011;6743;49.934;9.138;2023-11-22T05:17:03;0.90;;;0.90;;
13347;SDS011;6743;49.934;9.138;2023-11-22T05:19:29;0.80;;;0.80;;
13347;SDS011;6743;49.934;9.138;2023-11-22T05:21:56;0.70;;;0.70;;
13347;SDS011;6743;49.934;9.138;2023-11-22T05:24:23;1.00;;;0.97;;
13347;SDS011;6743;49.934;9.138;2023-11-22T05:26:49;0.80;;;0.70;;
13347;SDS011;6743;49.934;9.138;2023-11-22T05:29:15;0.63;;;0.63;;
13347;SDS011;6743;49.934;9.138;2023-11-22T05:31:42;1.00;;;1.00;;
13347;SDS011;6743;49.934;9.138;2023-11-22T05:34:07;1.13;;;0.93;;
13347;SDS011;6743;49.934;9.138;2023-11-22T05:36:33;1.33;;;0.77;;
13347;SDS011;6743;49.934;9.138;2023-11-22T05:38:59;1.27;;;1.17;;
13347;SDS011;6743;49.934;9.138;2023-11-22T05:41:25;1.50;;;1.17;;
13347;SDS011;6743;49.934;9.138;2023-11-22T05:43:52;1.60;;;1.50;;
13347;SDS011;6743;49.934;9.138;2023-11-22T05:46:18;1.33;;;1.20;;
13347;SDS011;6743;49.934;9.138;2023-11-22T05:48:47;0.60;;;0.60;;
13347;SDS011;6743;49.934;9.138;2023-11-22T05:51:14;2.70;;;0.97;;
13347;SDS011;6743;49.934;9.138;2023-11-22T05:53:40;1.23;;;1.23;;
13347;SDS011;6743;49.934;9.138;2023-11-22T05:56:06;1.00;;;1.00;;
13347;SDS011;6743;49.934;9.138;2023-11-22T05:58:33;1.50;;;1.40;;
13347;SDS011;6743;49.934;9.138;2023-11-22T06:01:02;3.70;;;1.87;;
13347;SDS011;6743;49.934;9.138;2023-11-22T06:03:28;1.00;;;1.00;;
13347;SDS011;6743;49.934;9.138;2023-11-22T06:05:54;1.40;;;1.30;;
13347;SDS011;6743;49.934;9.138;2023-11-22T06:08:22;1.30;;;1.20;;
13347;SDS011;6743;49.934;9.138;2023-11-22T06:10:48;2.97;;;1.00;;
13347;SDS011;6743;49.934;9.138;2023-11-22T06:13:14;0.90;;;0.90;;
13347;SDS011;6743;49.934;9.138;2023-11-22T06:15:40;2.30;;;1.20;;
13347;SDS011;6743;49.934;9.138;2023-11-22T06:18:06;0.83;;;0.83;;
13347;SDS011;6743;49.934;9.138;2023-11-22T06:20:32;1.83;;;1.60;;
13347;SDS011;6743;49.934;9.138;2023-11-22T06:22:59;0.67;;;0.67;;
13347;SDS011;6743;49.934;9.138;2023-11-22T06:25:25;1.23;;;1.17;;
13347;SDS011;6743;49.934;9.138;2023-11-22T06:27:51;1.90;;;1.50;;
13347;SDS011;6743;49.934;9.138;2023-11-22T06:30:17;0.73;;;0.70;;
13347;SDS011;6743;49.934;9.138;2023-11-22T06:32:42;1.63;;;1.43;;
13347;SDS011;6743;49.934;9.138;2023-11-22T06:35:09;0.87;;;0.87;;
13347;SDS011;6743;49.934;9.138;2023-11-22T06:37:36;0.70;;;0.70;;
13347;SDS011;6743;49.934;9.138;2023-11-22T06:40:04;3.33;;;1.33;;
13347;SDS011;6743;49.934;9.138;2023-11-22T06:42:30;1.07;;;1.07;;
13347;SDS011;6743;49.934;9.138;2023-11-22T06:44:58;1.50;;;1.40;;
13347;SDS011;6743;49.934;9.138;2023-11-22T06:47:25;2.17;;;1.70;;
13347;SDS011;6743;49.934;9.138;2023-11-22T06:49:52;1.97;;;1.60;;
13347;SDS011;6743;49.934;9.138;2023-11-22T06:52:18;1.73;;;1.10;;
13347;SDS011;6743;49.934;9.138;2023-11-22T06:54:44;2.33;;;1.43;;
13347;SDS011;6743;49.934;9.138;2023-11-22T06:57:11;1.03;;;1.03;;
13347;SDS011;6743;49.934;9.138;2023-11-22T06:59:37;1.77;;;1.67;;
13347;SDS011;6743;49.934;9.138;2023-11-22T07:02:03;2.33;;;1.13;;
13347;SDS011;6743;49.934;9.138;2023-11-22T07:04:29;0.90;;;0.90;;
13347;SDS011;6743;49.934;9.138;2023-11-22T07:06:55;0.70;;;0.70;;
13347;SDS011;6743;49.934;9.138;2023-11-22T07:09:22;1.10;;;1.10;;
13347;SDS011;6743;49.934;9.138;2023-11-22T07:11:48;0.87;;;0.87;;
13347;SDS011;6743;49.934;9.138;2023-11-22T07:14:15;0.80;;;0.80;;
13347;SDS011;6743;49.934;9.138;2023-11-22T07:16:41;1.07;;;1.00;;
13347;SDS011;6743;49.934;9.138;2023-11-22T07:19:07;3.93;;;2.10;;
13347;SDS011;6743;49.934;9.138;2023-11-22T07:21:33;5.40;;;2.70;;
13347;SDS011;6743;49.934;9.138;2023-11-22T07:24:03;6.00;;;3.13;;
13347;SDS011;6743;49.934;9.138;2023-11-22T07:26:31;6.07;;;3.47;;
13347;SDS011;6743;49.934;9.138;2023-11-22T07:28:58;11.47;;;5.33;;
13347;SDS011;6743;49.934;9.138;2023-11-22T07:31:24;13.00;;;6.13;;
13347;SDS011;6743;49.934;9.138;2023-11-22T07:33:50;4.43;;;3.23;;
13347;SDS011;6743;49.934;9.138;2023-11-22T07:36:17;2.27;;;2.03;;
13347;SDS011;6743;49.934;9.138;2023-11-22T07:38:42;4.00;;;2.00;;
13347;SDS011;6743;49.934;9.138;2023-11-22T07:41:08;7.97;;;6.07;;
13347;SDS011;6743;49.934;9.138;2023-11-22T07:43:35;6.63;;;5.00;;
13347;SDS011;6743;49.934;9.138;2023-11-22T07:46:04;7.47;;;4.93;;
13347;SDS011;6743;49.934;9.138;2023-11-22T07:48:31;5.07;;;3.27;;
13347;SDS011;6743;49.934;9.138;2023-11-22T07:50:58;2.27;;;2.13;;
13347;SDS011;6743;49.934;9.138;2023-11-22T07:53:24;4.47;;;2.23;;
13347;SDS011;6743;49.934;9.138;2023-11-22T07:55:54;1.43;;;1.33;;
13347;SDS011;6743;49.934;9.138;2023-11-22T07:58:21;1.50;;;1.23;;
13347;SDS011;6743;49.934;9.138;2023-11-22T08:00:47;3.30;;;1.47;;
13347;SDS011;6743;49.934;9.138;2023-11-22T08:03:13;2.43;;;1.93;;
13347;SDS011;6743;49.934;9.138;2023-11-22T08:05:41;1.03;;;1.03;;
13347;SDS011;6743;49.934;9.138;2023-11-22T08:08:13;4.13;;;1.47;;
13347;SDS011;6743;49.934;9.138;2023-11-22T08:10:39;13.77;;;1.87;;
13347;SDS011;6743;49.934;9.138;2023-11-22T08:13:05;3.63;;;1.23;;
13347;SDS011;6743;49.934;9.138;2023-11-22T08:15:31;5.77;;;1.90;;
13347;SDS011;6743;49.934;9.138;2023-11-22T08:18:00;4.33;;;2.23;;
13347;SDS011;6743;49.934;9.138;2023-11-22T08:20:26;6.07;;;2.97;;
13347;SDS011;6743;49.934;9.138;2023-11-22T08:22:53;1.63;;;1.50;;
13347;SDS011;6743;49.934;9.138;2023-11-22T08:25:19;2.03;;;1.47;;
13347;SDS011;6743;49.934;9.138;2023-11-22T08:27:45;1.70;;;1.10;;
13347;SDS011;6743;49.934;9.138;2023-11-22T08:30:11;1.30;;;1.20;;
13347;SDS011;6743;49.934;9.138;2023-11-22T08:32:41;0.97;;;0.97;;
13347;SDS011;6743;49.934;9.138;2023-11-22T08:35:08;1.40;;;1.00;;
13347;SDS011;6743;49.934;9.138;2023-11-22T08:37:35;2.60;;;1.80;;
13347;SDS011;6743;49.934;9.138;2023-11-22T08:40:04;1.73;;;1.20;;
13347;SDS011;6743;49.934;9.138;2023-11-22T08:42:31;1.07;;;1.00;;
13347;SDS011;6743;49.934;9.138;2023-11-22T08:44:57;1.27;;;1.17;;
13347;SDS011;6743;49.934;9.138;2023-11-22T08:47:23;1.67;;;1.23;;
13347;SDS011;6743;49.934;9.138;2023-11-22T08:49:49;0.93;;;0.93;;
13347;SDS011;6743;49.934;9.138;2023-11-22T08:52:15;1.20;;;1.10;;
13347;SDS011;6743;49.934;9.138;2023-11-22T08:54:41;0.70;;;0.70;;
13347;SDS011;6743;49.934;9.138;2023-11-22T08:57:08;1.40;;;1.30;;
13347;SDS011;6743;49.934;9.138;2023-11-22T08:59:36;1.40;;;1.30;;
13347;SDS011;6743;49.934;9.138;2023-11-22T09:02:03;1.30;;;1.10;;
13347;SDS011;6743;49.934;9.138;2023-11-22T09:04:29;1.27;;;1.17;;
13347;SDS011;6743;49.934;9.138;2023-11-22T09:06:56;0.90;;;0.90;;
13347;SDS011;6743;49.934;9.138;2023-11-22T09:09:22;1.50;;;1.50;;
13347;SDS011;6743;49.934;9.138;2023-11-22T09:11:55;1.30;;;1.20;;
13347;SDS011;6743;49.934;9.138;2023-11-22T09:14:22;0.80;;;0.80;;
13347;SDS011;6743;49.934;9.138;2023-11-22T09:16:49;0.83;;;0.80;;
13347;SDS011;6743;49.934;9.138;2023-11-22T09:19:19;1.43;;;1.43;;
13347;SDS011;6743;49.934;9.138;2023-11-22T09:21:45;1.07;;;1.07;;
13347;SDS011;6743;49.934;9.138;2023-11-22T09:24:11;1.93;;;1.77;;
13347;SDS011;6743;49.934;9.138;2023-11-22T09:26:37;1.00;;;1.00;;
13347;SDS011;6743;49.934;9.138;2023-11-22T09:29:03;1.80;;;1.70;;
13347;SDS011;6743;49.934;9.138;2023-11-22T09:31:30;0.97;;;0.90;;
13347;SDS011;6743;49.934;9.138;2023-11-22T09:33:56;1.40;;;1.30;;
13347;SDS011;6743;49.934;9.138;2023-11-22T09:36:22;1.67;;;1.30;;
13347;SDS011;6743;49.934;9.138;2023-11-22T09:38:52;1.17;;;1.17;;
13347;SDS011;6743;49.934;9.138;2023-11-22T09:41:18;0.90;;;0.90;;
13347;SDS011;6743;49.934;9.138;2023-11-22T09:43:44;2.20;;;1.40;;
13347;SDS011;6743;49.934;9.138;2023-11-22T09:46:14;1.43;;;1.33;;
13347;SDS011;6743;49.934;9.138;2023-11-22T09:48:45;1.77;;;1.67;;
13347;SDS011;6743;49.934;9.138;2023-11-22T09:51:23;1.20;;;1.07;;
13347;SDS011;6743;49.934;9.138;2023-11-22T09:53:52;1.13;;;1.03;;
13347;SDS011;6743;49.934;9.138;2023-11-22T09:56:21;1.20;;;1.20;;
13347;SDS011;6743;49.934;9.138;2023-11-22T09:58:48;2.23;;;1.57;;
13347;SDS011;6743;49.934;9.138;2023-11-22T10:01:19;1.67;;;1.53;;
13347;SDS011;6743;49.934;9.138;2023-11-22T10:03:48;1.37;;;1.17;;
13347;SDS011;6743;49.934;9.138;2023-11-22T10:06:14;1.17;;;1.07;;
13347;SDS011;6743;49.934;9.138;2023-11-22T10:08:41;1.80;;;1.17;;
13347;SDS011;6743;49.934;9.138;2023-11-22T10:11:07;1.00;;;1.00;;
13347;SDS011;6743;49.934;9.138;2023-11-22T10:13:34;1.07;;;0.73;;
13347;SDS011;6743;49.934;9.138;2023-11-22T10:16:08;1.57;;;1.47;;
13347;SDS011;6743;49.934;9.138;2023-11-22T10:18:38;1.87;;;1.40;;
13347;SDS011;6743;49.934;9.138;2023-11-22T10:21:15;0.90;;;0.90;;
13347;SDS011;6743;49.934;9.138;2023-11-22T10:23:45;1.67;;;1.57;;
13347;SDS011;6743;49.934;9.138;2023-11-22T10:26:12;1.17;;;1.07;;
13347;SDS011;6743;49.934;9.138;2023-11-22T10:28:41;0.70;;;0.70;;
13347;SDS011;6743;49.934;9.138;2023-11-22T10:31:08;1.00;;;0.87;;
13347;SDS011;6743;49.934;9.138;2023-11-22T10:33:38;0.87;;;0.87;;
13347;SDS011;6743;49.934;9.138;2023-11-22T10:36:04;1.30;;;1.20;;
13347;SDS011;6743;49.934;9.138;2023-11-22T10:38:33;2.30;;;1.30;;
13347;SDS011;6743;49.934;9.138;2023-11-22T10:41:00;1.37;;;0.80;;
13347;SDS011;6743;49.934;9.138;2023-11-22T10:43:29;1.03;;;1.00;;
13347;SDS011;6743;49.934;9.138;2023-11-22T10:45:58;0.73;;;0.70;;
13347;SDS011;6743;49.934;9.138;2023-11-22T10:48:24;1.40;;;1.23;;
13347;SDS011;6743;49.934;9.138;2023-11-22T10:50:50;1.17;;;1.17;;
13347;SDS011;6743;49.934;9.138;2023-11-22T10:53:20;1.40;;;0.67;;
13347;SDS011;6743;49.934;9.138;2023-11-22T10:55:49;0.90;;;0.90;;
13347;SDS011;6743;49.934;9.138;2023-11-22T10:58:22;0.80;;;0.80;;
13347;SDS011;6743;49.934;9.138;2023-11-22T11:00:50;0.77;;;0.77;;
13347;SDS011;6743;49.934;9.138;2023-11-22T11:03:17;1.33;;;1.23;;
13347;SDS011;6743;49.934;9.138;2023-11-22T11:05:45;1.00;;;1.00;;
13347;SDS011;6743;49.934;9.138;2023-11-22T11:08:14;1.10;;;1.00;;
13347;SDS011;6743;49.934;9.138;2023-11-22T11:10:46;1.37;;;1.27;;
13347;SDS011;6743;49.934;9.138;2023-11-22T11:13:14;0.73;;;0.73;;
13347;SDS011;6743;49.934;9.138;2023-11-22T11:15:41;0.80;;;0.80;;
13347;SDS011;6743;49.934;9.138;2023-11-22T11:18:09;0.90;;;0.90;;
13347;SDS011;6743;49.934;9.138;2023-11-22T11:20:44;2.00;;;1.70;;
13347;SDS011;6743;49.934;9.138;2023-11-22T11:23:13;1.37;;;1.20;;
13347;SDS011;6743;49.934;9.138;2023-11-22T11:25:40;0.90;;;0.90;;
13347;SDS011;6743;49.934;9.138;2023-11-22T11:28:10;2.37;;;1.50;;
13347;SDS011;6743;49.934;9.138;2023-11-22T11:30:40;1.23;;;1.13;;
13347;SDS011;6743;49.934;9.138;2023-11-22T11:33:08;1.03;;;1.03;;
13347;SDS011;6743;49.934;9.138;2023-11-22T11:35:37;2.30;;;1.30;;
13347;SDS011;6743;49.934;9.138;2023-11-22T11:38:06;0.87;;;0.87;;
13347;SDS011;6743;49.934;9.138;2023-11-22T11:40:34;1.03;;;0.93;;
13347;SDS011;6743;49.934;9.138;2023-11-22T11:43:01;1.70;;;1.00;;
13347;SDS011;6743;49.934;9.138;2023-11-22T11:45:27;1.00;;;0.87;;
13347;SDS011;6743;49.934;9.138;2023-11-22T11:47:54;0.70;;;0.70;;
13347;SDS011;6743;49.934;9.138;2023-11-22T11:50:20;0.67;;;0.67;;
13347;SDS011;6743;49.934;9.138;2023-11-22T11:52:47;1.13;;;1.00;;
13347;SDS011;6743;49.934;9.138;2023-11-22T11:55:13;0.83;;;0.60;;
13347;SDS011;6743;49.934;9.138;2023-11-22T11:57:40;0.63;;;0.63;;
13347;SDS011;6743;49.934;9.138;2023-11-22T12:00:07;0.50;;;0.50;;
13347;SDS011;6743;49.934;9.138;2023-11-22T12:02:35;0.77;;;0.77;;
13347;SDS011;6743;49.934;9.138;2023-11-22T12:05:01;1.73;;;1.00;;
13347;SDS011;6743;49.934;9.138;2023-11-22T12:07:33;1.80;;;1.33;;
13347;SDS011;6743;49.934;9.138;2023-11-22T12:09:59;0.87;;;0.87;;
13347;SDS011;6743;49.934;9.138;2023-11-22T12:12:25;1.40;;;1.30;;
13347;SDS011;6743;49.934;9.138;2023-11-22T12:14:51;1.00;;;1.00;;
13347;SDS011;6743;49.934;9.138;2023-11-22T12:17:18;1.13;;;1.10;;
13347;SDS011;6743;49.934;9.138;2023-11-22T12:19:46;0.70;;;0.70;;
13347;SDS011;6743;49.934;9.138;2023-11-22T12:22:13;0.90;;;0.90;;
13347;SDS011;6743;49.934;9.138;2023-11-22T12:24:41;1.20;;;1.13;;
13347;SDS011;6743;49.934;9.138;2023-11-22T12:27:09;1.00;;;1.00;;
13347;SDS011;6743;49.934;9.138;2023-11-22T12:29:35;1.43;;;1.30;;
13347;SDS011;6743;49.934;9.138;2023-11-22T12:32:02;0.70;;;0.70;;
13347;SDS011;6743;49.934;9.138;2023-11-22T12:34:28;0.80;;;0.80;;
13347;SDS011;6743;49.934;9.138;2023-11-22T12:36:56;0.90;;;0.90;;
13347;SDS011;6743;49.934;9.138;2023-11-22T12:39:22;1.43;;;1.43;;
13347;SDS011;6743;49.934;9.138;2023-11-22T12:41:48;1.40;;;1.30;;
13347;SDS011;6743;49.934;9.138;2023-11-22T12:44:16;1.57;;;1.13;;
13347;SDS011;6743;49.934;9.138;2023-11-22T12:46:46;0.60;;;0.60;;
13347;SDS011;6743;49.934;9.138;2023-11-22T12:49:14;1.20;;;1.07;;
13347;SDS011;6743;49.934;9.138;2023-11-22T12:51:45;0.80;;;0.80;;
13347;SDS011;6743;49.934;9.138;2023-11-22T12:54:12;0.77;;;0.77;;
13347;SDS011;6743;49.934;9.138;2023-11-22T12:56:40;1.43;;;1.23;;
13347;SDS011;6743;49.934;9.138;2023-11-22T12:59:06;1.10;;;1.10;;
13347;SDS011;6743;49.934;9.138;2023-11-22T13:01:33;0.90;;;0.90;;
13347;SDS011;6743;49.934;9.138;2023-11-22T13:04:00;1.47;;;1.37;;
13347;SDS011;6743;49.934;9.138;2023-11-22T13:06:26;1.90;;;1.33;;
13347;SDS011;6743;49.934;9.138;2023-11-22T13:08:52;0.80;;;0.80;;
13347;SDS011;6743;49.934;9.138;2023-11-22T13:11:19;0.80;;;0.80;;
13347;SDS011;6743;49.934;9.138;2023-11-22T13:13:45;1.43;;;1.33;;
13347;SDS011;6743;49.934;9.138;2023-11-22T13:16:11;1.03;;;1.00;;
13347;SDS011;6743;49.934;9.138;2023-11-22T13:18:39;0.77;;;0.77;;
13347;SDS011;6743;49.934;9.138;2023-11-22T13:21:05;1.13;;;1.03;;
13347;SDS011;6743;49.934;9.138;2023-11-22T13:23:31;2.07;;;1.20;;
13347;SDS011;6743;49.934;9.138;2023-11-22T13:25:58;1.97;;;1.10;;
13347;SDS011;6743;49.934;9.138;2023-11-22T13:28:24;0.87;;;0.87;;
13347;SDS011;6743;49.934;9.138;2023-11-22T13:30:50;1.03;;;0.83;;
13347;SDS011;6743;49.934;9.138;2023-11-22T13:33:16;1.10;;;1.10;;
13347;SDS011;6743;49.934;9.138;2023-11-22T13:35:43;1.70;;;1.10;;
13347;SDS011;6743;49.934;9.138;2023-11-22T13:38:10;0.93;;;0.93;;
13347;SDS011;6743;49.934;9.138;2023-11-22T13:40:41;0.53;;;0.53;;
13347;SDS011;6743;49.934;9.138;2023-11-22T13:43:10;0.80;;;0.80;;
13347;SDS011;6743;49.934;9.138;2023-11-22T13:45:38;1.27;;;1.17;;
13347;SDS011;6743;49.934;9.138;2023-11-22T13:48:06;1.73;;;1.20;;
13347;SDS011;6743;49.934;9.138;2023-11-22T13:50:34;0.70;;;0.70;;
13347;SDS011;6743;49.934;9.138;2023-11-22T13:53:01;1.97;;;1.30;;
13347;SDS011;6743;49.934;9.138;2023-11-22T13:55:28;1.40;;;1.20;;
13347;SDS011;6743;49.934;9.138;2023-11-22T13:57:55;1.10;;;1.10;;
13347;SDS011;6743;49.934;9.138;2023-11-22T14:00:23;2.17;;;1.93;;
13347;SDS011;6743;49.934;9.138;2023-11-22T14:02:53;1.37;;;1.27;;
13347;SDS011;6743;49.934;9.138;2023-11-22T14:05:21;1.60;;;1.50;;
13347;SDS011;6743;49.934;9.138;2023-11-22T14:07:47;1.37;;;0.87;;
13347;SDS011;6743;49.934;9.138;2023-11-22T14:10:13;0.87;;;0.87;;
13347;SDS011;6743;49.934;9.138;2023-11-22T14:12:41;1.13;;;1.03;;
13347;SDS011;6743;49.934;9.138;2023-11-22T14:15:08;1.13;;;1.07;;
13347;SDS011;6743;49.934;9.138;2023-11-22T14:17:36;1.27;;;1.17;;
13347;SDS011;6743;49.934;9.138;2023-11-22T14:20:04;1.00;;;1.00;;
13347;SDS011;6743;49.934;9.138;2023-11-22T14:22:34;1.50;;;1.40;;
13347;SDS011;6743;49.934;9.138;2023-11-22T14:25:00;1.13;;;1.10;;
13347;SDS011;6743;49.934;9.138;2023-11-22T14:27:26;3.40;;;1.43;;
13347;SDS011;6743;49.934;9.138;2023-11-22T14:29:54;1.77;;;1.47;;
13347;SDS011;6743;49.934;9.138;2023-11-22T14:32:20;1.60;;;1.03;;
13347;SDS011;6743;49.934;9.138;2023-11-22T14:34:46;1.20;;;1.10;;
13347;SDS011;6743;49.934;9.138;2023-11-22T14:37:13;1.43;;;1.37;;
13347;SDS011;6743;49.934;9.138;2023-11-22T14:39:39;2.43;;;1.43;;
13347;SDS011;6743;49.934;9.138;2023-11-22T14:42:06;0.93;;;0.90;;
13347;SDS011;6743;49.934;9.138;2023-11-22T14:44:32;1.07;;;1.07;;
13347;SDS011;6743;49.934;9.138;2023-11-22T14:46:59;1.20;;;1.20;;
13347;SDS011;6743;49.934;9.138;2023-11-22T14:49:26;1.27;;;1.03;;
13347;SDS011;6743;49.934;9.138;2023-11-22T14:51:52;1.47;;;1.30;;
13347;SDS011;6743;49.934;9.138;2023-11-22T14:54:20;0.93;;;0.93;;
13347;SDS011;6743;49.934;9.138;2023-11-22T14:56:46;7.67;;;1.07;;
13347;SDS011;6743;49.934;9.138;2023-11-22T14:59:12;1.53;;;1.43;;